Ana Sayfa
METAR-TAF:

METAR-TAF

Havaalanları :

Limni, Yunanistan

Enlem: 39-55N, Boylam: 025-14E, yükseklik: 5 m

Güncel hava durumu gözlemi

Rapor saat 05:50 UTC de 20 dakika önce yapıldı.
Rüzgar doğu/kuzeydoğudan 5 kt
Sıcaklık 14°C
Nem 94%
Basınç 1019 hPa
Görüş mesafesi 10 km veya daha fazla
800 ft yükseklikte parçalı bulutlu
2500 ft yükseklikte parçalı çok bulutlu

METAR: LGLM 200550Z 07005KT 9999 SCT008 BKN025 14/13 Q1019

Saat: 08:10 (06:10 UTC)

Tahmin

Rapor saat 05:00 UTC de 1 saat ve 10 dakika önce yapıldı.
Ayın 20'si saat 06 UTC'den ayın 20'si saat 15 UTC'ye kadar geçerli Tahmin
Rüzgar doğudan 10 kt
Görüş mesafesi 10 km veya daha fazla
2500 ft yükseklikte parçalı çok bulutlu
Dönüşüyor
ayın 20'si saat 10 UTC'den ayın 20'si saat 12 UTC'ye kadar
Rüzgar güneydan 15 kt ve 25 kt'a kadar ani rüzgarlar
2500 ft yükseklikte parçalı bulutlu

TAF: LGLM 200500Z 2006/2015 08010KT 9999 BKN025 BECMG 2010/2012 17015G25KT SCT025

4.000'den fazla havaalanı için hava durumu gözlemleri ve tahminleri (METAR ve TAF raporları).

Kullanılabilir istasyonlar harita üzerinde sarı ve kırmızı noktalarla gösterilir.

İstasyonun adını görmek için fareyi noktanın üzerinde gezdirin.

Sonrasında hava gözlem ve tahminlerini görmek için tıklayın.

Haritayı değiştirmek için: yaklaştırmak için siyah artı işaretli yeşil düğmeye ve uzaklaştırmak için de eksi işaretli düğmeye hızla tıklayın; bitişik haritalar için yeşil okları kullanın.


METAR-TAF: